< < Back
Terminal Aerodrome Forecast


Current Version              Previous Versions:   1  2  3  4  5  6  7  8  9  

Terminal Aerodrome Forecast

336
FTUS42 KTAE 220700 AAA
TAFTLH
TAF AMD
KTLH 220729Z 2207/2306 00000KT P6SM SKC
     FM221400 02007KT P6SM SKC=



Latest METAR

550
SAUS80 KWBC 230900 RRA
MTRTLH
METAR KTLH 230853Z AUTO 35004KT 10SM CLR 10/06 A3004 RMK AO2 SLP170
T01000061 55003 $


USA.gov is the U.S. government's official web portal to all federal, state and local government web resources and services.